Sandane, Sandane Airport (ENSD)

NameSandane Airport
CitySandane
CountryNorway
ICAOENSD
IATASDN
Altitude60 m
CoordinatesGoogle Map
Live Air TrafficLiveATC.net
METARENSD 172050Z 15006KT 120V190 9999 FEW040 M01/M04 Q1007 RMK WIND 1138FT 29004KT
2019-01-17 20:50:00 Wind: Southeast (150°) 3.09 m/s - Visibility: > 10000 m - Temperature: -1 °C - Dew point: -4 °C - Humidity: 80.3% - Pressure: 1007 hPa
Statistics

The table below shows the detailed information of all flights to/from Sandane, Sandane Airport (ENSD).